Time;durP1;ratioP1;P1;durP2;ratioP2;P2;SDS_P1;SDS_P2;PMS_P1;PMS_P2;Temp;Humidity;BMP_temperature;BMP_pressure;BME280_temperature;BME280_humidity;BME280_pressure;Samples;Min_cycle;Max_cycle;Signal;HPM_P1;HPM_P2
2024/02/10 00:01:14;;;;;;;16.83;11.47;;;9.00;99.90;;;;;;5055544;28;20461;-66
2024/02/10 00:03:42;;;;;;;17.60;11.47;;;9.00;99.90;;;;;;5056506;28;20587;-65
2024/02/10 00:06:15;;;;;;;16.90;10.80;;;9.00;99.90;;;;;;5054237;28;20566;-65
2024/02/10 00:08:43;;;;;;;19.30;12.10;;;8.90;99.90;;;;;;5052982;28;20981;-66
2024/02/10 00:11:12;;;;;;;17.90;11.90;;;9.00;99.90;;;;;;5050187;28;20878;-65
2024/02/10 00:13:41;;;;;;;18.73;12.07;;;9.00;99.90;;;;;;5056293;28;20939;-66
2024/02/10 00:16:12;;;;;;;17.50;11.73;;;9.10;99.90;;;;;;5054571;28;20444;-65
2024/02/10 00:18:40;;;;;;;18.07;12.70;;;9.20;99.90;;;;;;5051579;28;20438;-66
2024/02/10 00:21:09;;;;;;;20.63;12.33;;;9.20;99.90;;;;;;5056006;28;20437;-65
2024/02/10 00:23:38;;;;;;;21.70;13.00;;;9.10;99.90;;;;;;5057090;28;20527;-66
2024/02/10 00:26:06;;;;;;;18.90;12.30;;;9.20;99.90;;;;;;5053571;28;20566;-65
2024/02/10 00:28:35;;;;;;;19.20;13.27;;;9.20;99.90;;;;;;5058975;28;20465;-67
2024/02/10 00:31:04;;;;;;;23.40;13.80;;;9.30;99.90;;;;;;5062993;28;21050;-64
2024/02/10 00:33:34;;;;;;;19.87;13.27;;;9.30;99.90;;;;;;5063895;28;20485;-66
2024/02/10 00:36:02;;;;;;;20.77;12.80;;;9.20;99.90;;;;;;5053764;28;20439;-66
2024/02/10 00:38:30;;;;;;;20.47;11.90;;;9.00;99.90;;;;;;5064026;28;20445;-67
2024/02/10 00:41:05;;;;;;;16.70;10.93;;;9.10;99.90;;;;;;5063161;28;20444;-67
2024/02/10 00:43:37;;;;;;;20.80;13.17;;;9.00;99.90;;;;;;5063635;28;20457;-66
2024/02/10 00:46:07;;;;;;;22.77;14.00;;;9.10;99.90;;;;;;5063237;28;20470;-67
2024/02/10 00:48:37;;;;;;;20.27;13.63;;;9.20;99.90;;;;;;5063807;28;21175;-65
2024/02/10 00:51:06;;;;;;;22.53;13.83;;;9.20;99.90;;;;;;5063012;28;20454;-66
2024/02/10 00:53:38;;;;;;;20.07;14.97;;;9.20;99.90;;;;;;5050271;28;20934;-64
2024/02/10 00:56:08;;;;;;;18.67;12.40;;;9.10;99.90;;;;;;5055009;28;20428;-67
2024/02/10 00:58:37;;;;;;;19.80;12.40;;;9.10;99.90;;;;;;5056337;28;20851;-67
2024/02/10 01:01:09;;;;;;;18.50;13.23;;;9.10;99.90;;;;;;5065228;28;20537;-66
2024/02/10 01:03:43;;;;;;;17.63;11.73;;;9.10;99.90;;;;;;5063841;28;20498;-65
2024/02/10 01:06:12;;;;;;;19.90;13.30;;;9.10;99.90;;;;;;5064377;28;21055;-66
2024/02/10 01:08:46;;;;;;;18.40;11.97;;;9.10;99.90;;;;;;5064400;28;21188;-66
2024/02/10 01:11:14;;;;;;;18.70;12.80;;;9.00;99.90;;;;;;5058540;28;20488;-66
2024/02/10 01:13:45;;;;;;;21.57;14.57;;;9.10;99.90;;;;;;5061748;28;21091;-66
2024/02/10 01:16:15;;;;;;;20.40;14.27;;;9.10;99.90;;;;;;5059397;28;20448;-65
2024/02/10 01:18:46;;;;;;;21.90;15.03;;;9.10;99.90;;;;;;5050221;28;20566;-66
2024/02/10 01:21:15;;;;;;;24.90;16.30;;;9.00;99.90;;;;;;5043393;28;20464;-66
2024/02/10 01:23:46;;;;;;;21.27;14.20;;;9.00;99.90;;;;;;5062007;28;20531;-66
2024/02/10 01:26:17;;;;;;;19.30;11.53;;;9.10;99.90;;;;;;5063884;28;20940;-66
2024/02/10 01:28:45;;;;;;;20.53;13.10;;;9.00;99.90;;;;;;5050823;28;20445;-64
2024/02/10 01:31:15;;;;;;;19.90;12.90;;;9.00;99.90;;;;;;5065551;28;20467;-67
2024/02/10 01:33:47;;;;;;;18.70;13.60;;;9.00;99.90;;;;;;5067281;28;20477;-67
2024/02/10 01:36:15;;;;;;;20.10;12.13;;;9.00;99.90;;;;;;5055410;28;20451;-67
2024/02/10 01:38:44;;;;;;;19.67;12.20;;;9.00;99.90;;;;;;5068259;28;20459;-66
2024/02/10 01:41:13;;;;;;;20.23;13.00;;;8.90;99.90;;;;;;5067684;28;20507;-68
2024/02/10 01:43:41;;;;;;;25.53;13.00;;;9.00;99.90;;;;;;5067160;28;20514;-67
2024/02/10 01:46:13;;;;;;;17.20;12.00;;;8.90;99.90;;;;;;5064376;28;21050;-68
2024/02/10 01:48:42;;;;;;;19.10;11.87;;;8.90;99.90;;;;;;5065286;28;20436;-67
2024/02/10 01:51:12;;;;;;;18.70;12.53;;;8.80;99.90;;;;;;5065159;28;20467;-67
2024/02/10 01:53:40;;;;;;;18.03;11.80;;;8.80;99.90;;;;;;5066746;28;20483;-67
2024/02/10 01:56:11;;;;;;;21.13;12.13;;;8.80;99.90;;;;;;5066847;28;20510;-67
2024/02/10 01:58:40;;;;;;;20.53;13.57;;;8.80;99.90;;;;;;5066905;28;20440;-67
2024/02/10 02:01:10;;;;;;;22.30;14.50;;;8.90;99.90;;;;;;5066410;28;20485;-67
2024/02/10 02:03:42;;;;;;;20.53;14.53;;;8.80;99.90;;;;;;5061304;28;20445;-66
2024/02/10 02:06:17;;;;;;;22.13;14.13;;;8.90;99.90;;;;;;5047516;28;20515;-67
2024/02/10 02:08:46;;;;;;;34.73;15.27;;;8.90;99.90;;;;;;5047169;28;20444;-67
2024/02/10 02:11:15;;;;;;;24.80;14.20;;;8.90;99.90;;;;;;5053645;28;20456;-67
2024/02/10 02:13:49;;;;;;;22.30;13.10;;;8.90;99.90;;;;;;5066752;28;20536;-67
2024/02/10 02:16:17;;;;;;;19.70;13.30;;;8.90;99.90;;;;;;5066182;28;20474;-67
2024/02/10 02:18:46;;;;;;;20.33;13.20;;;8.90;99.90;;;;;;5064793;28;21161;-66
2024/02/10 02:21:15;;;;;;;20.20;13.20;;;8.90;99.90;;;;;;5060430;28;20491;-66
2024/02/10 02:23:49;;;;;;;21.13;13.37;;;8.90;99.90;;;;;;5048118;28;20515;-68
2024/02/10 02:26:17;;;;;;;18.97;13.00;;;8.90;99.90;;;;;;5048122;28;20585;-67
2024/02/10 02:28:48;;;;;;;22.80;14.60;;;8.90;99.90;;;;;;5048464;28;20733;-66
2024/02/10 02:31:17;;;;;;;23.07;14.60;;;9.00;99.90;;;;;;5045569;28;20543;-67
2024/02/10 02:33:51;;;;;;;19.27;13.53;;;9.00;99.90;;;;;;5046999;28;20902;-66
2024/02/10 02:36:19;;;;;;;22.77;15.30;;;9.00;99.90;;;;;;5060121;28;20440;-66
2024/02/10 02:38:50;;;;;;;25.77;16.53;;;9.00;99.90;;;;;;5066469;28;20454;-67
2024/02/10 02:41:18;;;;;;;24.97;14.50;;;9.10;99.90;;;;;;5065810;28;20583;-67
2024/02/10 02:43:48;;;;;;;21.93;13.50;;;9.10;99.90;;;;;;5065983;28;20447;-66
2024/02/10 02:46:19;;;;;;;22.03;12.70;;;9.00;99.90;;;;;;5066797;28;20824;-66
2024/02/10 02:48:48;;;;;;;24.20;14.70;;;9.10;99.90;;;;;;5065508;28;20980;-67
2024/02/10 02:51:19;;;;;;;23.37;13.83;;;9.00;99.90;;;;;;5061403;28;20916;-67
2024/02/10 02:53:49;;;;;;;24.23;14.23;;;9.00;99.90;;;;;;5063784;28;20453;-66
2024/02/10 02:56:18;;;;;;;24.40;14.10;;;9.00;99.90;;;;;;5066546;28;20480;-67
2024/02/10 02:58:49;;;;;;;22.50;12.73;;;9.00;99.90;;;;;;5065304;28;20447;-67
2024/02/10 03:01:17;;;;;;;22.13;12.90;;;9.00;99.90;;;;;;5066340;28;20470;-67
2024/02/10 03:03:49;;;;;;;21.87;12.40;;;9.00;99.90;;;;;;5067336;28;20474;-67
2024/02/10 03:06:19;;;;;;;24.00;13.40;;;9.10;99.90;;;;;;5067780;28;20525;-66
2024/02/10 03:08:49;;;;;;;25.50;15.90;;;9.00;99.90;;;;;;5066718;28;20447;-67
2024/02/10 03:11:18;;;;;;;21.77;14.20;;;9.00;99.90;;;;;;5065794;28;20992;-67
2024/02/10 03:13:46;;;;;;;21.80;13.13;;;8.90;99.90;;;;;;5065748;28;20444;-67
2024/02/10 03:16:17;;;;;;;25.00;13.97;;;8.90;99.90;;;;;;5046960;28;20465;-66
2024/02/10 03:18:46;;;;;;;28.83;14.63;;;8.90;99.90;;;;;;5046635;28;20556;-66
2024/02/10 03:21:14;;;;;;;31.20;15.03;;;8.90;99.90;;;;;;5063637;28;20468;-66
2024/02/10 03:23:44;;;;;;;28.20;14.10;;;8.90;99.90;;;;;;5067299;28;20447;-66
2024/02/10 03:26:13;;;;;;;28.10;14.43;;;8.90;99.90;;;;;;5066484;28;20459;-67
2024/02/10 03:28:41;;;;;;;28.83;14.90;;;8.80;99.90;;;;;;5066431;28;20548;-67
2024/02/10 03:31:10;;;;;;;21.30;13.30;;;8.80;99.90;;;;;;5066319;28;20458;-67
2024/02/10 03:33:37;;;;;;;23.33;13.33;;;8.70;99.90;;;;;;5067181;28;20830;-67
2024/02/10 03:36:06;;;;;;;28.83;13.77;;;8.70;99.90;;;;;;5064536;28;20444;-67
2024/02/10 03:38:34;;;;;;;23.27;14.37;;;8.70;99.90;;;;;;5066828;28;20435;-67
2024/02/10 03:41:02;;;;;;;22.07;12.93;;;8.70;99.90;;;;;;5065592;28;20442;-67
2024/02/10 03:43:32;;;;;;;23.70;14.33;;;8.60;99.90;;;;;;5067672;28;20446;-67
2024/02/10 03:45:59;;;;;;;26.30;13.40;;;8.60;99.90;;;;;;5066621;28;20830;-68
2024/02/10 03:48:27;;;;;;;23.87;12.83;;;8.50;99.90;;;;;;5066796;28;20486;-67
2024/02/10 03:50:55;;;;;;;23.77;12.70;;;8.50;99.90;;;;;;5066059;28;20439;-66
2024/02/10 03:53:25;;;;;;;26.27;13.53;;;8.50;99.90;;;;;;5054763;28;20454;-65
2024/02/10 03:55:56;;;;;;;21.00;12.07;;;8.40;99.90;;;;;;5045475;28;21351;-67
2024/02/10 03:58:25;;;;;;;26.87;13.70;;;8.30;99.90;;;;;;5046906;28;20503;-67
2024/02/10 04:00:54;;;;;;;22.93;13.67;;;8.30;99.90;;;;;;5048112;28;20961;-68
2024/02/10 04:03:22;;;;;;;22.33;12.77;;;8.20;99.90;;;;;;5049907;28;20514;-67
2024/02/10 04:05:50;;;;;;;22.97;12.57;;;8.20;99.90;;;;;;5050061;28;20455;-67
2024/02/10 04:08:19;;;;;;;27.77;14.97;;;8.10;99.90;;;;;;5050347;28;21055;-67
2024/02/10 04:10:47;;;;;;;24.57;14.20;;;8.30;99.90;;;;;;5057710;28;20909;-66
2024/02/10 04:13:16;;;;;;;24.80;13.90;;;8.30;99.90;;;;;;5070057;28;20470;-67
2024/02/10 04:15:46;;;;;;;27.47;14.07;;;8.40;99.90;;;;;;5070128;28;20456;-67
2024/02/10 04:18:16;;;;;;;24.93;13.27;;;8.40;99.90;;;;;;5070898;28;20478;-67
2024/02/10 04:20:46;;;;;;;23.00;12.70;;;8.30;99.90;;;;;;5070657;28;20589;-67
2024/02/10 04:23:14;;;;;;;25.20;13.63;;;8.30;99.90;;;;;;5070464;28;20467;-67
2024/02/10 04:25:42;;;;;;;25.23;13.20;;;8.20;99.90;;;;;;5069179;28;20634;-67
2024/02/10 04:28:10;;;;;;;25.43;13.40;;;8.20;99.90;;;;;;5068969;28;20474;-67
2024/02/10 04:30:39;;;;;;;23.00;13.10;;;8.10;99.90;;;;;;5069621;28;20439;-67
2024/02/10 04:33:07;;;;;;;20.37;11.60;;;8.00;99.90;;;;;;5062231;28;20494;-67
2024/02/10 04:35:37;;;;;;;20.50;11.77;;;7.80;99.90;;;;;;5069382;28;20450;-66
2024/02/10 04:38:08;;;;;;;21.00;12.73;;;7.70;99.90;;;;;;5070185;28;20446;-66
2024/02/10 04:40:37;;;;;;;25.13;13.10;;;7.60;99.90;;;;;;5068862;28;20467;-68
2024/02/10 04:43:05;;;;;;;25.93;14.03;;;7.50;99.90;;;;;;5069693;28;20457;-67
2024/02/10 04:45:35;;;;;;;30.67;14.73;;;7.50;99.90;;;;;;5061315;28;20471;-68
2024/02/10 04:48:07;;;;;;;25.00;12.97;;;7.50;99.90;;;;;;5049722;28;20511;-68
2024/02/10 04:50:37;;;;;;;23.60;12.97;;;7.50;99.90;;;;;;5048967;28;20446;-68
2024/02/10 04:53:06;;;;;;;20.70;12.53;;;7.50;99.90;;;;;;5048668;28;20469;-67
2024/02/10 04:55:36;;;;;;;29.57;15.20;;;7.40;99.90;;;;;;5049684;28;20967;-67
2024/02/10 04:58:04;;;;;;;22.67;12.80;;;7.40;99.90;;;;;;5050078;28;20945;-66
2024/02/10 05:00:32;;;;;;;25.47;14.30;;;7.30;99.90;;;;;;5049849;28;20508;-67
2024/02/10 05:03:02;;;;;;;21.20;12.23;;;7.40;99.90;;;;;;5058756;28;20967;-68
2024/02/10 05:05:30;;;;;;;21.93;12.93;;;7.50;99.90;;;;;;5068934;28;20454;-67
2024/02/10 05:07:59;;;;;;;25.43;12.03;;;7.50;99.90;;;;;;5069089;28;20488;-67
2024/02/10 05:10:28;;;;;;;23.20;13.47;;;7.60;99.90;;;;;;5069005;28;20735;-68
2024/02/10 05:12:56;;;;;;;25.20;12.80;;;7.60;99.90;;;;;;5067668;28;20467;-67
2024/02/10 05:15:26;;;;;;;21.47;11.60;;;7.60;99.90;;;;;;5069098;28;21107;-67
2024/02/10 05:17:55;;;;;;;25.17;12.00;;;7.50;99.90;;;;;;5069346;28;20442;-67
2024/02/10 05:20:24;;;;;;;24.23;13.13;;;7.50;99.90;;;;;;5062988;28;20461;-65
2024/02/10 05:22:56;;;;;;;25.93;13.37;;;7.50;99.90;;;;;;5053141;28;20808;-67
2024/02/10 05:25:27;;;;;;;22.60;12.17;;;7.60;99.90;;;;;;5068541;28;20507;-67
2024/02/10 05:28:00;;;;;;;24.10;12.80;;;7.60;99.90;;;;;;5069015;28;20511;-68
2024/02/10 05:30:28;;;;;;;28.30;12.83;;;7.60;99.90;;;;;;5068888;28;20451;-67
2024/02/10 05:32:59;;;;;;;23.87;13.50;;;7.70;99.90;;;;;;5067182;28;20466;-67
2024/02/10 05:35:29;;;;;;;21.83;11.80;;;7.80;99.90;;;;;;5069077;28;20457;-67
2024/02/10 05:37:58;;;;;;;26.93;13.53;;;7.80;99.90;;;;;;5067604;28;20446;-68
2024/02/10 05:40:30;;;;;;;23.67;12.57;;;7.80;99.90;;;;;;5067872;28;20449;-68
2024/02/10 05:42:58;;;;;;;21.40;11.90;;;7.80;99.90;;;;;;5067905;28;20467;-67
2024/02/10 05:45:28;;;;;;;24.03;13.37;;;7.70;99.90;;;;;;5068464;28;20450;-68
2024/02/10 05:47:58;;;;;;;25.23;12.33;;;7.70;99.90;;;;;;5068798;28;20518;-67
2024/02/10 05:50:27;;;;;;;24.70;13.33;;;7.60;99.90;;;;;;5068390;28;20450;-68
2024/02/10 05:52:57;;;;;;;26.73;14.07;;;7.70;99.90;;;;;;5066660;28;20473;-66
2024/02/10 05:55:29;;;;;;;26.50;12.50;;;7.60;99.90;;;;;;5062368;28;20585;-67
2024/02/10 05:58:01;;;;;;;26.87;13.60;;;7.60;99.90;;;;;;5069044;28;20448;-67
2024/02/10 06:00:29;;;;;;;27.33;12.83;;;7.50;99.90;;;;;;5068293;28;20491;-67
2024/02/10 06:02:59;;;;;;;25.13;12.23;;;7.50;99.90;;;;;;5068143;28;20476;-67
2024/02/10 06:05:30;;;;;;;24.23;13.73;;;7.50;99.90;;;;;;5070725;28;20503;-63
2024/02/10 06:08:00;;;;;;;27.60;14.70;;;7.60;99.90;;;;;;5064170;28;20457;-67
2024/02/10 06:10:30;;;;;;;26.03;13.40;;;7.80;99.90;;;;;;5066498;28;20448;-67
2024/02/10 06:12:58;;;;;;;28.83;13.57;;;7.80;99.90;;;;;;5068344;28;20527;-67
2024/02/10 06:15:26;;;;;;;29.77;14.80;;;7.80;99.90;;;;;;5067462;28;20461;-67
2024/02/10 06:17:56;;;;;;;27.60;14.30;;;7.80;99.90;;;;;;5068144;28;20460;-66
2024/02/10 06:20:24;;;;;;;27.60;14.40;;;7.70;99.90;;;;;;5067760;28;20449;-67
2024/02/10 06:22:53;;;;;;;33.10;15.33;;;7.70;99.90;;;;;;5067484;28;20508;-66
2024/02/10 06:25:26;;;;;;;22.97;13.57;;;7.70;99.90;;;;;;5055311;28;20481;-67
2024/02/10 06:27:59;;;;;;;29.80;15.40;;;7.70;99.90;;;;;;5047737;28;20491;-66
2024/02/10 06:30:32;;;;;;;26.40;14.80;;;7.80;99.90;;;;;;5047422;28;20441;-66
2024/02/10 06:33:03;;;;;;;36.07;15.33;;;7.80;99.90;;;;;;5047102;28;20498;-66
2024/02/10 06:35:36;;;;;;;33.00;16.77;;;7.80;99.90;;;;;;5046312;28;20530;-66
2024/02/10 06:38:04;;;;;;;32.93;15.73;;;7.80;99.90;;;;;;5047762;28;20441;-67
2024/02/10 06:40:42;;;;;;;32.40;15.20;;;7.70;99.90;;;;;;5055889;28;20469;-66
2024/02/10 06:43:13;;;;;;;28.50;13.77;;;7.70;99.90;;;;;;5068027;28;20469;-67
2024/02/10 06:45:43;;;;;;;31.47;15.03;;;7.60;99.90;;;;;;5067213;28;20448;-67
2024/02/10 06:48:11;;;;;;;33.77;15.53;;;7.70;99.90;;;;;;5067709;28;20431;-67
2024/02/10 06:50:40;;;;;;;31.47;15.30;;;7.70;99.90;;;;;;5066880;28;20833;-67
2024/02/10 06:53:11;;;;;;;23.23;12.90;;;7.80;99.90;;;;;;5067213;28;20469;-67
2024/02/10 06:55:39;;;;;;;22.70;14.03;;;7.80;99.90;;;;;;5065346;28;20437;-66
2024/02/10 06:58:07;;;;;;;30.30;14.43;;;7.80;99.90;;;;;;5067071;28;20453;-67
2024/02/10 07:00:40;;;;;;;28.13;14.97;;;7.70;99.90;;;;;;5066499;28;20488;-67
2024/02/10 07:03:08;;;;;;;26.00;14.50;;;7.70;99.90;;;;;;5066590;28;20466;-67
2024/02/10 07:05:37;;;;;;;28.13;14.60;;;7.80;99.90;;;;;;5058900;28;20787;-66
2024/02/10 07:08:05;;;;;;;26.63;14.00;;;7.80;99.90;;;;;;5048032;28;20448;-67
2024/02/10 07:10:33;;;;;;;24.43;12.93;;;7.90;99.90;;;;;;5047974;28;20491;-67
2024/02/10 07:13:04;;;;;;;27.80;14.13;;;8.00;99.90;;;;;;5067419;28;20470;-67
2024/02/10 07:15:32;;;;;;;27.87;14.87;;;8.00;99.90;;;;;;5067248;28;20455;-66
2024/02/10 07:18:02;;;;;;;26.27;13.43;;;8.00;99.90;;;;;;5067475;28;20443;-66
2024/02/10 07:20:32;;;;;;;31.43;13.37;;;8.00;99.90;;;;;;5066892;28;20443;-66
2024/02/10 07:23:03;;;;;;;36.83;14.07;;;8.00;99.90;;;;;;5066537;28;20471;-66
2024/02/10 07:25:32;;;;;;;27.80;12.43;;;7.90;99.90;;;;;;5066417;28;20965;-67
2024/02/10 07:28:01;;;;;;;24.20;13.40;;;8.00;99.90;;;;;;5065555;28;20439;-66
2024/02/10 07:30:32;;;;;;;25.90;13.77;;;8.00;99.90;;;;;;5052457;28;20675;-67
2024/02/10 07:33:08;;;;;;;28.27;14.17;;;8.00;99.90;;;;;;5046919;28;20850;-67
2024/02/10 07:35:39;;;;;;;26.80;13.27;;;8.10;99.90;;;;;;5046878;28;20454;-67
2024/02/10 07:38:08;;;;;;;26.97;13.70;;;8.20;99.90;;;;;;5047724;28;20467;-67
2024/02/10 07:40:37;;;;;;;28.93;13.67;;;8.30;99.90;;;;;;5046596;28;20472;-66
2024/02/10 07:43:06;;;;;;;29.07;14.30;;;8.30;99.90;;;;;;5050884;28;20471;-67
2024/02/10 07:45:34;;;;;;;30.17;14.90;;;8.40;99.90;;;;;;5066489;28;20462;-66
2024/02/10 07:48:06;;;;;;;34.37;15.87;;;8.30;99.90;;;;;;5066886;28;20493;-67
2024/02/10 07:50:43;;;;;;;34.70;15.67;;;8.40;99.90;;;;;;5065946;28;20520;-66
2024/02/10 07:53:16;;;;;;;29.77;15.13;;;8.40;99.90;;;;;;5055129;28;20479;-66
2024/02/10 07:55:46;;;;;;;36.73;15.97;;;8.40;99.90;;;;;;5046439;28;20542;-66
2024/02/10 07:58:18;;;;;;;29.70;15.10;;;8.40;99.90;;;;;;5053477;28;20449;-66
2024/02/10 08:00:46;;;;;;;32.47;15.43;;;8.40;99.90;;;;;;5065656;28;20438;-66
2024/02/10 08:03:16;;;;;;;33.87;15.60;;;8.40;99.90;;;;;;5066344;28;20462;-65
2024/02/10 08:05:48;;;;;;;39.37;15.63;;;8.50;99.90;;;;;;5066202;28;20447;-67
2024/02/10 08:08:16;;;;;;;36.80;17.07;;;8.60;99.90;;;;;;5066330;28;20439;-66
2024/02/10 08:10:45;;;;;;;34.13;17.27;;;8.70;99.90;;;;;;5065623;28;20493;-66
2024/02/10 08:13:13;;;;;;;28.63;14.63;;;8.70;99.90;;;;;;5064292;28;20506;-66
2024/02/10 08:15:41;;;;;;;32.90;15.40;;;8.70;99.90;;;;;;5066918;28;20446;-67
2024/02/10 08:18:09;;;;;;;31.40;15.17;;;8.80;99.90;;;;;;5067541;28;20453;-67
2024/02/10 08:20:41;;;;;;;28.83;15.93;;;9.00;99.90;;;;;;5067081;28;20494;-66
2024/02/10 08:23:12;;;;;;;34.70;17.07;;;9.10;99.90;;;;;;5067335;28;20467;-66
2024/02/10 08:25:41;;;;;;;33.30;16.20;;;9.00;99.90;;;;;;5063773;28;20440;-67
2024/02/10 08:28:11;;;;;;;31.40;15.47;;;9.10;99.90;;;;;;5066281;28;20439;-66
2024/02/10 08:30:38;;;;;;;33.87;17.77;;;9.10;99.90;;;;;;5067034;28;20530;-67
2024/02/10 08:33:06;;;;;;;34.60;17.90;;;9.20;99.90;;;;;;5067278;28;20559;-65
2024/02/10 08:35:36;;;;;;;32.90;19.00;;;9.30;99.90;;;;;;5066509;28;20470;-66
2024/02/10 08:38:06;;;;;;;36.77;18.20;;;9.30;99.90;;;;;;5067755;28;20934;-67
2024/02/10 08:40:34;;;;;;;34.30;16.90;;;9.30;99.90;;;;;;5052321;28;20508;-66
2024/02/10 08:43:02;;;;;;;34.23;18.17;;;9.30;99.90;;;;;;5060821;28;20554;-67
2024/02/10 08:45:30;;;;;;;30.80;15.47;;;9.30;99.90;;;;;;5066489;28;20518;-67
2024/02/10 08:48:00;;;;;;;31.20;15.20;;;9.30;99.90;;;;;;5070176;28;20448;-66
2024/02/10 08:50:31;;;;;;;30.40;15.90;;;9.20;99.90;;;;;;5063761;28;20540;-66
2024/02/10 08:52:59;;;;;;;32.10;16.90;;;9.30;99.90;;;;;;5067494;28;20460;-66
2024/02/10 08:55:28;;;;;;;28.00;15.27;;;9.40;99.90;;;;;;5068944;28;20879;-67
2024/02/10 08:58:01;;;;;;;27.43;13.67;;;9.50;99.90;;;;;;5069878;28;20457;-66
2024/02/10 09:00:29;;;;;;;26.33;12.63;;;9.60;99.90;;;;;;5069659;28;20534;-66
2024/02/10 09:02:57;;;;;;;26.73;15.50;;;9.70;99.90;;;;;;5068676;28;20556;-67
2024/02/10 09:05:26;;;;;;;30.93;16.07;;;9.60;99.90;;;;;;5062572;28;21055;-66
2024/02/10 09:07:54;;;;;;;28.33;14.50;;;9.50;99.90;;;;;;5069045;28;20451;-67
2024/02/10 09:10:23;;;;;;;27.13;14.40;;;9.50;99.90;;;;;;5062905;28;20479;-67
2024/02/10 09:12:52;;;;;;;29.33;14.77;;;9.60;99.90;;;;;;5069026;28;20464;-65
2024/02/10 09:15:21;;;;;;;33.00;15.33;;;9.70;99.90;;;;;;5067669;28;20552;-66
2024/02/10 09:17:50;;;;;;;27.90;15.20;;;9.70;99.90;;;;;;5060939;28;20533;-67
2024/02/10 09:20:21;;;;;;;26.83;14.83;;;9.60;99.90;;;;;;5062462;28;20447;-67
2024/02/10 09:22:49;;;;;;;31.57;15.77;;;9.60;99.90;;;;;;5062122;28;20476;-67
2024/02/10 09:25:17;;;;;;;29.53;15.80;;;9.80;99.90;;;;;;5060432;28;20468;-66
2024/02/10 09:27:46;;;;;;;26.37;14.67;;;9.90;99.90;;;;;;5062466;28;20499;-70
2024/02/10 09:30:16;;;;;;;29.50;15.90;;;10.00;99.90;;;;;;5062806;28;20484;-65
2024/02/10 09:32:45;;;;;;;35.20;16.83;;;9.90;99.90;;;;;;5063880;28;20465;-67
2024/02/10 09:35:13;;;;;;;27.10;15.30;;;9.80;99.90;;;;;;5068697;28;20451;-67
2024/02/10 09:37:54;;;;;;;28.57;14.77;;;9.80;99.90;;;;;;5068173;28;20511;-67
2024/02/10 09:40:24;;;;;;;25.20;14.63;;;9.90;99.90;;;;;;5060588;28;20449;-67
2024/02/10 09:43:01;;;;;;;27.87;15.43;;;10.10;99.90;;;;;;5059498;28;20464;-66
2024/02/10 09:45:34;;;;;;;30.77;15.93;;;10.00;99.90;;;;;;5065519;28;20471;-66
2024/02/10 09:48:06;;;;;;;31.80;15.07;;;10.00;99.90;;;;;;5069100;28;20496;-67
2024/02/10 09:50:34;;;;;;;28.67;14.97;;;10.10;99.90;;;;;;5067864;28;21140;-66
2024/02/10 09:53:05;;;;;;;32.13;16.23;;;10.10;99.90;;;;;;5067017;28;20552;-67
2024/02/10 09:55:33;;;;;;;27.20;14.17;;;10.00;99.90;;;;;;5062405;28;20457;-67
2024/02/10 09:58:04;;;;;;;29.40;16.00;;;9.90;99.90;;;;;;5066913;28;20571;-66
2024/02/10 10:00:37;;;;;;;31.07;15.80;;;9.90;99.90;;;;;;5048421;28;20942;-65
2024/02/10 10:03:06;;;;;;;32.17;18.03;;;10.00;99.90;;;;;;5068066;28;20520;-67
2024/02/10 10:05:42;;;;;;;30.37;16.63;;;10.00;99.90;;;;;;5068452;28;20459;-67
2024/02/10 10:08:11;;;;;;;30.33;17.80;;;10.10;99.90;;;;;;5064953;28;20443;-68
2024/02/10 10:10:39;;;;;;;30.77;18.23;;;10.10;99.90;;;;;;5061995;28;20485;-66
2024/02/10 10:13:08;;;;;;;28.50;17.10;;;10.00;99.90;;;;;;5067873;28;20465;-66
2024/02/10 10:15:39;;;;;;;30.97;18.00;;;10.00;99.90;;;;;;5060421;28;21165;-66
2024/02/10 10:18:14;;;;;;;28.00;16.70;;;9.90;99.90;;;;;;5060720;28;20883;-67
2024/02/10 10:20:46;;;;;;;28.97;17.47;;;9.90;99.90;;;;;;5054157;28;20556;-67
2024/02/10 10:23:15;;;;;;;29.00;16.70;;;9.90;99.90;;;;;;5058968;28;20461;-68
2024/02/10 10:25:46;;;;;;;34.47;17.70;;;9.90;99.90;;;;;;5057306;28;20542;-66
2024/02/10 10:28:16;;;;;;;29.50;17.13;;;10.00;99.90;;;;;;5048771;28;20449;-66
2024/02/10 10:30:47;;;;;;;26.20;16.57;;;10.10;99.90;;;;;;5045267;28;20485;-65
2024/02/10 10:33:20;;;;;;;29.87;17.57;;;10.10;99.90;;;;;;5051310;28;21124;-66
2024/02/10 10:35:49;;;;;;;29.17;16.93;;;10.10;99.90;;;;;;5053005;28;20451;-66
2024/02/10 10:38:17;;;;;;;31.33;18.73;;;10.20;99.90;;;;;;5052665;28;20449;-65
2024/02/10 10:40:46;;;;;;;28.97;17.60;;;10.20;99.90;;;;;;5052557;28;20867;-66
2024/02/10 10:43:17;;;;;;;30.70;18.00;;;10.20;99.90;;;;;;5053850;28;20468;-66
2024/02/10 10:45:47;;;;;;;32.63;17.77;;;10.20;99.90;;;;;;5055136;28;21005;-66
2024/02/10 10:48:15;;;;;;;31.13;17.23;;;10.20;99.90;;;;;;5049994;28;20503;-66
2024/02/10 10:50:43;;;;;;;29.07;17.00;;;10.20;99.90;;;;;;5044275;28;20484;-66
2024/02/10 10:53:11;;;;;;;29.30;16.73;;;10.10;99.90;;;;;;5044414;28;20452;-66
2024/02/10 10:55:43;;;;;;;31.23;18.90;;;10.20;99.90;;;;;;5061124;28;20587;-66
2024/02/10 10:58:16;;;;;;;27.50;17.30;;;10.10;99.90;;;;;;5058723;28;21080;-66
2024/02/10 11:00:48;;;;;;;31.47;16.47;;;9.90;99.90;;;;;;5058056;28;20493;-65
2024/02/10 11:03:16;;;;;;;31.37;17.17;;;9.80;99.90;;;;;;5059170;28;20470;-66
2024/02/10 11:05:47;;;;;;;35.20;17.53;;;9.90;99.90;;;;;;5059526;28;20463;-66
2024/02/10 11:08:22;;;;;;;33.33;18.33;;;9.90;99.90;;;;;;5063367;28;20434;-65
2024/02/10 11:10:50;;;;;;;31.50;18.23;;;10.00;99.90;;;;;;5060745;28;20878;-65
2024/02/10 11:13:22;;;;;;;29.43;15.93;;;10.10;99.90;;;;;;5063577;28;20935;-65
2024/02/10 11:16:04;;;;;;;28.00;15.73;;;10.20;99.90;;;;;;5062733;28;20455;-66
2024/02/10 11:18:34;;;;;;;30.20;16.50;;;10.30;99.90;;;;;;5062714;28;20494;-66
2024/02/10 11:21:10;;;;;;;28.40;16.20;;;10.40;99.90;;;;;;5062384;28;20440;-67
2024/02/10 11:23:38;;;;;;;27.37;14.50;;;10.30;99.90;;;;;;5060230;28;20442;-67
2024/02/10 11:26:08;;;;;;;27.73;14.83;;;10.30;99.90;;;;;;5051595;28;20456;-66
2024/02/10 11:28:38;;;;;;;30.07;15.17;;;10.00;99.90;;;;;;5051343;28;20522;-66
2024/02/10 11:31:12;;;;;;;27.03;14.60;;;9.80;99.90;;;;;;5042066;28;20581;-66
2024/02/10 11:33:40;;;;;;;30.10;14.37;;;9.70;99.90;;;;;;5055980;28;20438;-66
2024/02/10 11:36:10;;;;;;;25.67;13.83;;;9.70;99.90;;;;;;5055879;28;20435;-67
2024/02/10 11:38:40;;;;;;;25.80;13.03;;;9.70;99.90;;;;;;5063078;28;20442;-67
2024/02/10 11:41:10;;;;;;;30.73;13.40;;;9.70;99.90;;;;;;5052378;28;20439;-66
2024/02/10 11:43:38;;;;;;;23.57;13.50;;;9.80;99.90;;;;;;5048657;28;20475;-66
2024/02/10 11:46:09;;;;;;;23.80;11.93;;;10.00;99.90;;;;;;5049852;28;20852;-65
2024/02/10 11:48:37;;;;;;;21.80;12.33;;;10.10;99.90;;;;;;5048004;28;20531;-67
2024/02/10 11:51:05;;;;;;;21.40;12.33;;;10.20;99.90;;;;;;5048607;28;20436;-66
2024/02/10 11:53:33;;;;;;;20.13;11.90;;;10.50;99.90;;;;;;5050239;28;20477;-66
2024/02/10 11:56:05;;;;;;;17.30;9.87;;;10.70;99.90;;;;;;5067595;28;20437;-66
2024/02/10 11:58:35;;;;;;;17.83;9.50;;;10.90;99.90;;;;;;5077612;28;20431;-66
2024/02/10 12:01:04;;;;;;;15.83;9.23;;;11.00;99.90;;;;;;5073296;28;20435;-66
2024/02/10 12:03:33;;;;;;;17.43;10.13;;;11.20;99.90;;;;;;5076979;28;20453;-67
2024/02/10 12:06:02;;;;;;;17.17;10.23;;;11.40;99.90;;;;;;5061519;28;20663;-67
2024/02/10 12:08:33;;;;;;;16.97;10.10;;;11.40;99.90;;;;;;5069894;28;20473;-66
2024/02/10 12:11:01;;;;;;;17.10;9.00;;;11.50;99.90;;;;;;5063180;28;20449;-66
2024/02/10 12:13:29;;;;;;;16.67;9.03;;;11.70;99.90;;;;;;5067029;28;20487;-66
2024/02/10 12:16:01;;;;;;;16.97;10.23;;;11.70;99.90;;;;;;5066444;28;20550;-66
2024/02/10 12:18:30;;;;;;;14.77;8.37;;;11.80;99.90;;;;;;5055404;28;20448;-66
2024/02/10 12:20:59;;;;;;;16.10;9.50;;;11.90;99.90;;;;;;5054873;28;20450;-66
2024/02/10 12:23:29;;;;;;;18.10;9.00;;;11.70;99.90;;;;;;5056606;28;20435;-66
2024/02/10 12:25:57;;;;;;;16.80;9.57;;;11.70;99.90;;;;;;5052029;28;20504;-67
2024/02/10 12:28:25;;;;;;;16.03;9.50;;;11.70;99.90;;;;;;5056914;28;20522;-66
2024/02/10 12:30:54;;;;;;;16.00;10.03;;;11.60;99.90;;;;;;5052549;28;20454;-66
2024/02/10 12:33:24;;;;;;;20.50;9.33;;;11.60;99.90;;;;;;5051670;28;20480;-68
2024/02/10 12:35:54;;;;;;;16.83;9.27;;;11.60;99.90;;;;;;5057088;28;20506;-67
2024/02/10 12:38:25;;;;;;;16.60;10.40;;;11.60;99.90;;;;;;5056785;28;20443;-66
2024/02/10 12:40:53;;;;;;;16.97;10.03;;;11.30;99.90;;;;;;5054097;28;20446;-66
2024/02/10 12:43:23;;;;;;;19.20;10.90;;;11.20;99.90;;;;;;5062870;28;20849;-67
2024/02/10 12:45:52;;;;;;;17.33;10.10;;;11.30;99.90;;;;;;5061789;28;20456;-67
2024/02/10 12:48:20;;;;;;;18.23;10.60;;;11.30;99.90;;;;;;5062763;28;20479;-65